Yonago, Japan
Current Conditions -  °F | °C
As of 1:00 PM on Sunday 23 Nov 2014 (Local Time) from RJOH Reporting Station
Broken Clouds Broken Clouds  
Wind Chill: 64°   Ceiling: 5000
Heat Index: 64°   Visibility: 6mi
Dew Point: 48°   Wind: 14mph
Humidity: 56%   Direction: 50°NE
Pressure: 30.24"   Gusts: NA
Location:  35.44°N, 133.34°E
Report Text: RJOH 230400Z 05012KT 9999 FEW025 SCT035 BKN050 18/09 Q1024
Loading
Personal Weather Stations






























Interactive Weather Map New forecast layout! Learn more

10-Day Weather Forecast

Advertisements
Track Severe Weather on mobile